createdAt,value
2019-03-11T00:00:57.943Z,7.73
2019-03-11T00:04:06.420Z,7.62
2019-03-11T00:06:54.787Z,7.78
2019-03-11T00:09:59.540Z,7.90
2019-03-11T00:12:47.739Z,7.73
2019-03-11T00:15:52.281Z,7.78
2019-03-11T00:18:40.287Z,7.68
2019-03-11T00:21:45.059Z,7.61
2019-03-11T00:24:32.851Z,7.57
2019-03-11T00:27:37.564Z,7.52
2019-03-11T00:30:42.352Z,7.56
2019-03-11T00:33:30.279Z,7.44
2019-03-11T00:36:36.786Z,7.29
2019-03-11T00:39:24.621Z,7.36
2019-03-11T00:42:29.056Z,7.33
2019-03-11T00:45:16.883Z,7.32
2019-03-11T00:48:21.765Z,7.34
2019-03-11T00:51:10.095Z,7.38
2019-03-11T00:54:14.806Z,7.34
2019-03-11T00:57:02.500Z,7.23
2019-03-11T01:00:08.579Z,7.19
2019-03-11T01:02:56.646Z,7.22
2019-03-11T01:06:01.206Z,7.28
2019-03-11T01:08:49.367Z,7.57
2019-03-11T01:11:55.087Z,7.71
2019-03-11T01:14:42.980Z,7.90
2019-03-11T01:17:47.459Z,7.81
2019-03-11T01:20:35.806Z,7.85
2019-03-11T01:23:40.409Z,7.81
2019-03-11T01:26:28.413Z,8.10
2019-03-11T01:29:32.842Z,7.88
2019-03-11T01:32:20.678Z,7.68
2019-03-11T01:35:25.632Z,7.56
2019-03-11T01:38:13.753Z,7.42
2019-03-11T01:41:18.599Z,7.24
2019-03-11T01:44:06.542Z,7.39
2019-03-11T01:47:11.352Z,7.82
2019-03-11T01:49:59.294Z,7.76
2019-03-11T01:53:07.054Z,7.75
2019-03-11T01:55:55.904Z,7.66
2019-03-11T01:59:01.942Z,7.73
2019-03-11T02:01:49.951Z,7.98
2019-03-11T02:04:56.860Z,8.17
2019-03-11T02:07:45.000Z,8.14
2019-03-11T02:10:50.112Z,8.07
2019-03-11T02:13:37.956Z,8.09
2019-03-11T02:16:42.787Z,8.27
2019-03-11T02:19:30.903Z,8.41
2019-03-11T02:22:36.008Z,8.85
2019-03-11T02:25:24.132Z,9.05
2019-03-11T02:28:28.756Z,9.00
2019-03-11T02:31:17.017Z,9.08
2019-03-11T02:34:21.682Z,9.22
2019-03-11T02:37:09.807Z,9.30
2019-03-11T02:40:14.419Z,9.30
2019-03-11T02:43:02.360Z,9.43
2019-03-11T02:46:07.257Z,9.60
2019-03-11T02:48:55.134Z,9.72
2019-03-11T02:52:00.024Z,9.65
2019-03-11T02:54:48.329Z,9.57
2019-03-11T02:57:54.498Z,9.52
2019-03-11T03:00:42.402Z,9.63
2019-03-11T03:06:59.730Z,9.91
2019-03-11T03:10:04.411Z,10.04
2019-03-11T03:12:52.204Z,10.15
2019-03-11T03:15:56.606Z,10.20
2019-03-11T03:18:44.850Z,10.32
2019-03-11T03:21:49.782Z,10.47
2019-03-11T03:24:37.606Z,10.49
2019-03-11T03:27:42.614Z,10.34
2019-03-11T03:30:30.489Z,10.54
2019-03-11T03:33:35.455Z,10.60
2019-03-11T03:36:23.735Z,10.59
2019-03-11T03:39:28.141Z,10.65
2019-03-11T03:42:16.202Z,10.78
2019-03-11T03:45:20.697Z,11.02
2019-03-11T03:48:08.794Z,11.09
2019-03-11T03:51:13.398Z,11.26
2019-03-11T03:54:01.119Z,11.31
2019-03-11T03:57:05.929Z,11.13
2019-03-11T03:59:53.741Z,10.84
2019-03-11T04:02:58.724Z,10.60
2019-03-11T04:05:46.468Z,10.56
2019-03-11T04:08:51.026Z,10.67
2019-03-11T04:11:39.156Z,10.94
2019-03-11T04:14:43.810Z,10.97
2019-03-11T04:17:31.693Z,10.94
2019-03-11T04:20:36.490Z,11.01
2019-03-11T04:23:24.381Z,11.06
2019-03-11T04:26:29.416Z,11.06
2019-03-11T04:29:17.428Z,11.02
2019-03-11T04:32:22.362Z,11.01
2019-03-11T04:35:10.162Z,11.02
2019-03-11T04:38:15.163Z,11.10
2019-03-11T04:41:03.294Z,11.10
2019-03-11T04:44:07.928Z,11.05
2019-03-11T04:46:55.878Z,11.10
2019-03-11T04:50:00.718Z,11.05
2019-03-11T04:52:48.736Z,11.02
2019-03-11T04:55:53.670Z,10.99
2019-03-11T04:58:41.916Z,11.22
2019-03-11T05:01:46.636Z,11.55
2019-03-11T05:04:35.901Z,11.78
2019-03-11T05:07:40.574Z,11.89
2019-03-11T05:10:28.831Z,11.97
2019-03-11T05:13:33.580Z,12.03
2019-03-11T05:16:21.363Z,12.07
2019-03-11T05:19:26.249Z,12.07
2019-03-11T05:22:14.414Z,12.10
2019-03-11T05:25:19.252Z,12.02
2019-03-11T05:28:07.499Z,11.90
2019-03-11T05:53:34.535Z,12.57
2019-03-11T05:56:39.693Z,12.67
2019-03-11T05:59:28.119Z,12.71
2019-03-11T06:02:32.514Z,12.81
2019-03-11T06:05:20.515Z,12.95
2019-03-11T06:08:24.976Z,13.16
2019-03-11T06:11:13.654Z,13.47
2019-03-11T06:14:18.245Z,13.85
2019-03-11T06:17:06.063Z,14.17
2019-03-11T06:20:21.769Z,14.53
2019-03-11T06:23:11.867Z,14.88
2019-03-11T06:26:16.594Z,15.12
2019-03-11T06:29:06.757Z,15.08
2019-03-11T06:32:14.515Z,15.03
2019-03-11T06:35:02.856Z,15.13
2019-03-11T08:18:03.348Z,21.60
2019-03-11T08:20:32.543Z,22.08
2019-03-11T08:23:01.629Z,22.91
2019-03-11T08:25:33.577Z,22.32
2019-03-11T08:28:05.195Z,21.99
2019-03-11T08:30:34.014Z,23.48
2019-03-11T08:33:06.112Z,24.31
2019-03-11T08:35:34.967Z,24.61
2019-03-11T08:38:05.188Z,24.20
2019-03-11T08:40:37.366Z,23.87
2019-03-11T08:43:06.336Z,23.48
2019-03-11T08:45:35.082Z,24.35
2019-03-11T08:48:06.932Z,24.72
2019-03-11T08:50:35.642Z,24.41
2019-03-11T08:53:05.977Z,24.51
2019-03-11T08:55:34.873Z,26.22
2019-03-11T08:58:03.634Z,27.38
2019-03-11T09:00:32.415Z,28.18
2019-03-11T09:03:03.074Z,27.95
2019-03-11T09:05:32.066Z,27.94
2019-03-11T09:08:03.401Z,28.15
2019-03-11T09:10:33.959Z,28.55
2019-03-11T09:13:02.747Z,29.33
2019-03-11T09:15:32.680Z,28.55
2019-03-11T09:18:02.348Z,28.33
2019-03-11T09:20:31.136Z,28.39
2019-03-11T09:23:01.667Z,28.98
2019-03-11T09:25:33.657Z,29.83
2019-03-11T09:28:02.447Z,29.52
2019-03-11T09:30:31.221Z,29.57
2019-03-11T09:33:00.021Z,28.34
2019-03-11T09:35:28.790Z,27.45
2019-03-11T09:37:59.262Z,26.55
2019-03-11T09:40:28.072Z,27.54
2019-03-11T09:42:58.195Z,27.69
2019-03-11T09:45:27.175Z,28.10
2019-03-11T09:47:55.977Z,27.97
2019-03-11T09:50:24.879Z,27.94
2019-03-11T09:52:54.034Z,28.19
2019-03-11T09:55:25.027Z,27.61
2019-03-11T09:57:53.939Z,27.12
2019-03-11T10:00:24.888Z,27.11
2019-03-11T10:02:53.782Z,28.31
2019-03-11T10:05:22.467Z,27.89
2019-03-11T10:07:51.819Z,30.36
2019-03-11T10:10:22.433Z,32.32
2019-03-11T10:12:51.208Z,35.05
2019-03-11T10:15:23.785Z,31.71
2019-03-11T10:17:53.108Z,30.77
2019-03-11T10:20:22.410Z,29.56
2019-03-11T10:22:51.630Z,28.71
2019-03-11T10:25:21.442Z,28.17
2019-03-11T10:27:50.607Z,27.51
2019-03-11T10:30:20.634Z,26.75
2019-03-11T10:33:05.973Z,26.37
2019-03-11T10:35:34.166Z,26.30
2019-03-11T10:38:02.932Z,25.47
2019-03-11T10:40:34.688Z,25.21
2019-03-11T10:43:03.475Z,25.23
2019-03-11T10:45:32.504Z,26.26
2019-03-11T10:48:01.427Z,28.04
2019-03-11T10:50:30.469Z,29.14
2019-03-11T10:52:59.155Z,28.88
2019-03-11T10:55:28.512Z,30.07
2019-03-11T10:57:57.254Z,30.86
2019-03-11T11:00:29.133Z,32.87
2019-03-11T11:03:01.248Z,33.33
2019-03-11T11:05:30.080Z,33.00
2019-03-11T11:07:59.101Z,34.62
2019-03-11T11:10:30.888Z,35.29
2019-03-11T11:12:59.656Z,36.86
2019-03-11T11:15:30.809Z,38.23
2019-03-11T11:17:59.614Z,38.31
2019-03-11T11:20:28.800Z,38.41
2019-03-11T11:22:57.650Z,38.18
2019-03-11T11:25:28.144Z,38.20
2019-03-11T11:27:57.275Z,39.46
2019-03-11T11:30:49.594Z,40.19
2019-03-11T11:33:37.698Z,40.03
2019-03-11T11:36:42.104Z,39.48
2019-03-11T11:39:30.171Z,38.24
2019-03-11T11:42:34.767Z,38.44
2019-03-11T11:45:22.844Z,38.58
2019-03-11T11:48:27.922Z,37.36
2019-03-11T11:51:16.257Z,36.73
2019-03-11T11:54:20.832Z,36.64
2019-03-11T11:57:09.046Z,36.26
2019-03-11T12:00:14.051Z,35.91
2019-03-11T12:03:02.109Z,36.43
2019-03-11T12:06:07.288Z,36.29
2019-03-11T12:08:55.471Z,34.19
2019-03-11T12:12:00.337Z,33.65
2019-03-11T12:14:48.690Z,33.85
2019-03-11T12:17:53.741Z,33.69
2019-03-11T12:20:58.765Z,33.49
2019-03-11T12:23:47.309Z,32.43
2019-03-11T12:26:51.909Z,32.47
2019-03-11T12:29:39.993Z,34.02
2019-03-11T12:32:45.115Z,34.69
2019-03-11T12:35:33.283Z,34.63
2019-03-11T12:38:38.251Z,34.82
2019-03-11T12:41:26.466Z,34.48
2019-03-11T12:44:31.073Z,34.56
2019-03-11T12:47:19.016Z,34.30
2019-03-11T12:50:24.074Z,34.05
2019-03-11T12:53:12.252Z,32.63
2019-03-11T12:56:16.772Z,32.05
2019-03-11T12:59:04.636Z,31.89
2019-03-11T13:02:09.638Z,31.21
2019-03-11T13:04:57.757Z,29.97
2019-03-11T13:08:02.419Z,28.23
2019-03-11T13:10:50.136Z,27.77
2019-03-11T13:13:54.656Z,26.61
2019-03-11T13:16:42.616Z,26.42
2019-03-11T13:19:47.362Z,26.41
2019-03-11T13:22:35.528Z,26.65
2019-03-11T13:25:40.235Z,27.39
2019-03-11T13:28:29.056Z,27.35
2019-03-11T13:31:34.005Z,25.73
2019-03-11T13:34:21.951Z,25.42
2019-03-11T13:37:26.746Z,24.68
2019-03-11T13:40:16.272Z,24.38
2019-03-11T13:43:22.881Z,24.58
2019-03-11T13:46:10.767Z,24.31
2019-03-11T13:49:18.810Z,24.56
2019-03-11T13:52:09.670Z,24.19
2019-03-11T13:55:14.574Z,24.81
2019-03-11T13:58:03.231Z,24.57
2019-03-11T14:01:08.399Z,25.20
2019-03-11T14:03:56.500Z,25.08
2019-03-11T14:07:00.988Z,24.81
2019-03-11T14:09:48.895Z,24.15
2019-03-11T14:12:53.969Z,24.15
2019-03-11T14:15:41.759Z,23.57
2019-03-11T14:18:46.674Z,23.34
2019-03-11T14:21:34.472Z,23.38
2019-03-11T14:24:39.103Z,23.11
2019-03-11T14:27:27.381Z,23.15
2019-03-11T14:30:32.128Z,22.84
2019-03-11T14:33:20.098Z,22.35
2019-03-11T14:36:24.649Z,22.24
2019-03-11T14:39:12.867Z,22.36
2019-03-11T14:42:17.497Z,22.11
2019-03-11T14:45:05.567Z,21.91
2019-03-11T14:48:10.062Z,21.95
2019-03-11T14:50:38.844Z,22.07
2019-03-11T14:53:07.526Z,22.02
2019-03-11T14:55:36.234Z,21.40
2019-03-11T14:58:04.903Z,21.35
2019-03-11T15:00:33.574Z,21.43
2019-03-11T15:03:02.200Z,21.31
2019-03-11T15:05:31.383Z,21.09
2019-03-11T15:08:00.006Z,21.26
2019-03-11T15:10:28.651Z,21.03
2019-03-11T15:12:57.332Z,20.88
2019-03-11T15:15:26.506Z,20.68
2019-03-11T15:17:55.131Z,20.70
2019-03-11T15:20:23.794Z,20.70
2019-03-11T15:22:52.417Z,20.60
2019-03-11T15:25:21.164Z,20.53
2019-03-11T15:27:52.704Z,20.45
2019-03-11T15:30:22.880Z,20.26
2019-03-11T15:32:51.600Z,20.03
2019-03-11T15:35:20.619Z,20.02
2019-03-11T15:37:49.387Z,19.82
2019-03-11T15:40:18.777Z,19.74
2019-03-11T15:42:50.228Z,19.66
2019-03-11T15:45:19.767Z,19.63
2019-03-11T15:47:51.457Z,19.52
2019-03-11T15:50:33.840Z,19.46
2019-03-11T15:53:02.609Z,19.35
2019-03-11T15:55:31.349Z,19.21
2019-03-11T15:57:59.986Z,19.15
2019-03-11T16:00:28.726Z,19.05
2019-03-11T16:02:57.462Z,18.94
2019-03-11T16:05:26.752Z,18.88
2019-03-11T16:07:58.655Z,18.84
2019-03-11T16:10:27.401Z,18.60
2019-03-11T16:12:56.055Z,18.46
2019-03-11T16:15:24.719Z,18.35
2019-03-11T16:17:53.306Z,18.27
2019-03-11T16:20:24.108Z,18.26
2019-03-11T16:22:52.797Z,18.22
2019-03-11T16:25:21.548Z,18.15
2019-03-11T16:27:55.968Z,18.09
2019-03-11T16:30:25.741Z,18.04
2019-03-11T16:33:00.451Z,17.99
2019-03-11T16:35:27.039Z,17.86
2019-03-11T16:37:55.793Z,17.81
2019-03-11T16:40:24.474Z,17.75
2019-03-11T16:42:53.112Z,17.75
2019-03-11T16:45:22.061Z,17.68
2019-03-11T16:47:50.690Z,17.70
2019-03-11T16:50:26.775Z,17.61
2019-03-11T16:52:55.388Z,17.69
2019-03-11T16:55:28.742Z,17.62
2019-03-11T16:57:57.382Z,17.60
2019-03-11T17:00:39.738Z,17.53
2019-03-11T17:03:08.853Z,17.51
2019-03-11T17:05:37.529Z,17.55
2019-03-11T17:08:06.171Z,17.55
2019-03-11T17:10:34.843Z,17.43
2019-03-11T17:13:03.477Z,17.32
2019-03-11T17:15:32.148Z,17.20
2019-03-11T17:18:00.785Z,17.17
2019-03-11T17:20:29.519Z,17.06
2019-03-11T17:22:58.141Z,16.99
2019-03-11T17:25:26.779Z,16.74
2019-03-11T17:27:55.447Z,16.67
2019-03-11T17:30:27.536Z,16.73
2019-03-11T17:32:56.170Z,16.73
2019-03-11T17:35:24.879Z,16.53
2019-03-11T17:37:53.546Z,16.53
2019-03-11T17:40:23.570Z,16.48
2019-03-11T17:42:52.506Z,16.43
2019-03-11T17:45:21.264Z,16.49
2019-03-11T17:47:49.899Z,16.47
2019-03-11T17:50:25.798Z,16.48
2019-03-11T17:52:54.438Z,16.51
2019-03-11T17:55:23.073Z,16.46
2019-03-11T17:57:51.813Z,16.38
2019-03-11T18:00:38.147Z,16.38
2019-03-11T18:03:06.991Z,16.33
2019-03-11T18:05:35.685Z,16.38
2019-03-11T18:08:04.639Z,16.37
2019-03-11T18:10:33.327Z,16.37
2019-03-11T18:13:02.175Z,16.44
2019-03-11T18:15:30.889Z,16.41
2019-03-11T18:17:59.621Z,16.23
2019-03-11T18:20:28.573Z,16.23
2019-03-11T18:22:57.513Z,16.09
2019-03-11T18:25:26.512Z,15.90
2019-03-11T18:27:55.566Z,15.91
2019-03-11T18:30:30.458Z,15.91
2019-03-11T18:32:59.219Z,15.87
2019-03-11T18:35:27.825Z,15.81
2019-03-11T18:38:04.197Z,15.85
2019-03-11T18:40:29.876Z,15.90
2019-03-11T18:43:01.274Z,16.12
2019-03-11T18:45:29.947Z,15.97
2019-03-11T18:47:58.589Z,15.94
2019-03-11T18:50:27.299Z,15.63
2019-03-11T18:52:55.843Z,15.44
2019-03-11T18:55:27.552Z,15.53
2019-03-11T18:57:56.237Z,15.44
2019-03-11T19:00:25.298Z,15.47
2019-03-11T19:02:53.981Z,15.54
2019-03-11T19:05:23.740Z,15.47
2019-03-11T19:07:54.891Z,15.46
2019-03-11T19:10:22.730Z,15.33
2019-03-11T19:12:51.367Z,15.25
2019-03-11T19:15:24.498Z,15.06
2019-03-11T19:17:55.793Z,15.00
2019-03-11T19:20:27.725Z,14.85
2019-03-11T19:22:56.346Z,14.66
2019-03-11T19:25:24.818Z,14.58
2019-03-11T19:27:53.423Z,14.29
2019-03-11T19:30:26.588Z,13.99
2019-03-11T19:32:55.298Z,13.92
2019-03-11T19:35:24.027Z,13.68
2019-03-11T19:37:52.813Z,13.53
2019-03-11T19:40:23.584Z,13.54
2019-03-11T19:42:52.295Z,13.49
2019-03-11T19:45:20.989Z,13.47
2019-03-11T19:47:49.672Z,13.40
2019-03-11T19:50:19.147Z,13.35
2019-03-11T19:52:57.959Z,13.22
2019-03-11T19:55:18.291Z,13.11
2019-03-11T19:57:47.163Z,13.03
2019-03-11T20:00:23.926Z,12.94
2019-03-11T20:02:52.757Z,12.83
2019-03-11T20:05:24.438Z,12.75
2019-03-11T20:07:53.184Z,12.77
2019-03-11T20:10:21.857Z,12.81
2019-03-11T20:12:50.513Z,12.85
2019-03-11T20:15:19.152Z,12.92
2019-03-11T20:17:48.108Z,12.99
2019-03-11T20:20:18.698Z,13.09
2019-03-11T20:22:48.495Z,13.08
2019-03-11T20:25:22.883Z,13.02
2019-03-11T20:27:51.438Z,13.01
2019-03-11T20:30:21.866Z,12.96
2019-03-11T20:32:50.502Z,12.90
2019-03-11T20:35:21.921Z,12.88
2019-03-11T20:37:50.536Z,12.83
2019-03-11T20:40:19.121Z,12.80
2019-03-11T20:42:47.982Z,12.75
2019-03-11T20:45:18.823Z,12.74
2019-03-11T20:47:47.522Z,12.76
2019-03-11T20:50:17.045Z,12.75
2019-03-11T20:52:45.775Z,12.74
2019-03-11T20:55:15.544Z,12.72
2019-03-11T20:57:44.153Z,12.69
2019-03-11T21:00:15.522Z,12.63
2019-03-11T21:02:44.273Z,12.56
2019-03-11T21:05:15.584Z,12.48
2019-03-11T21:07:44.158Z,12.39
2019-03-11T21:10:14.702Z,12.33
2019-03-11T21:12:43.516Z,12.24
2019-03-11T21:15:14.748Z,12.19
2019-03-11T21:17:43.467Z,12.15
2019-03-11T21:20:14.798Z,12.10
2019-03-11T21:22:43.475Z,12.08
2019-03-11T21:25:17.762Z,12.02
2019-03-11T21:27:46.516Z,11.97
2019-03-11T21:30:20.581Z,11.91
2019-03-11T21:32:49.292Z,11.87
2019-03-11T21:35:18.081Z,11.79
2019-03-11T21:37:46.698Z,11.78
2019-03-11T21:40:17.158Z,11.80
2019-03-11T21:42:45.964Z,11.84
2019-03-11T21:45:15.727Z,11.84
2019-03-11T21:47:44.353Z,11.80
2019-03-11T21:50:28.694Z,11.73
2019-03-11T21:52:57.413Z,11.64
2019-03-11T21:55:26.062Z,11.53
2019-03-11T21:57:54.692Z,11.47
2019-03-11T22:00:34.002Z,11.38
2019-03-11T22:02:54.528Z,11.29
2019-03-11T22:05:23.086Z,11.05
2019-03-11T22:07:51.759Z,10.98
2019-03-11T22:10:20.892Z,11.05
2019-03-11T22:12:49.802Z,11.19
2019-03-11T22:15:20.523Z,11.16
2019-03-11T22:17:49.082Z,11.14
2019-03-11T22:20:18.381Z,11.14
2019-03-11T22:22:47.016Z,11.10
2019-03-11T22:25:16.686Z,11.04
2019-03-11T22:27:45.367Z,10.99
2019-03-11T22:30:19.294Z,10.95
2019-03-11T22:32:47.932Z,10.87
2019-03-11T22:35:16.566Z,10.90
2019-03-11T22:37:45.166Z,10.88
2019-03-11T22:40:17.571Z,10.87
2019-03-11T22:42:46.206Z,10.85
2019-03-11T22:45:26.162Z,10.87
2019-03-11T22:47:54.767Z,10.86
2019-03-11T22:50:23.394Z,10.81
2019-03-11T22:52:52.066Z,10.76
2019-03-11T22:55:20.791Z,10.71
2019-03-11T22:57:49.414Z,10.69
2019-03-11T23:00:25.593Z,10.62
2019-03-11T23:02:54.191Z,10.65
2019-03-11T23:05:22.821Z,10.72
2019-03-11T23:07:51.491Z,10.78
2019-03-11T23:10:20.116Z,10.87
2019-03-11T23:12:48.718Z,10.96
2019-03-11T23:15:17.401Z,10.97
2019-03-11T23:17:45.893Z,11.01
2019-03-11T23:20:14.618Z,11.04
2019-03-11T23:22:43.226Z,11.03
2019-03-11T23:25:11.847Z,11.05
2019-03-11T23:27:40.521Z,11.03
2019-03-11T23:30:12.221Z,11.05
2019-03-11T23:32:40.805Z,11.04
2019-03-11T23:35:09.444Z,11.01
2019-03-11T23:37:38.070Z,10.94
2019-03-11T23:40:08.847Z,10.93
2019-03-11T23:42:37.522Z,10.91
2019-03-11T23:45:08.006Z,10.89
2019-03-11T23:47:36.577Z,10.87
2019-03-11T23:50:07.309Z,10.87
2019-03-11T23:52:35.868Z,10.86
2019-03-11T23:55:06.702Z,10.78
2019-03-11T23:57:35.301Z,10.79
